Time;durP1;ratioP1;P1;durP2;ratioP2;P2;SDS_P1;SDS_P2;PMS_P1;PMS_P2;Temp;Humidity;BMP_temperature;BMP_pressure;BME280_temperature;BME280_humidity;BME280_pressure;Samples;Min_cycle;Max_cycle;Signal;HPM_P1;HPM_P2
2023/04/04 05:20:08;;;;;;;;;;;;;;;3.58;53.56;96903.00;4215731;27;10472;-78
2023/04/04 05:22:11;;;;;;;;;;;;;;;3.77;53.14;96914.19;4210491;28;5757;-76
2023/04/04 05:24:16;;;;;;;;;;;;;;;3.88;52.94;96905.31;4189835;28;6350;-77
2023/04/04 05:26:18;;;;;;;;;;;;;;;3.96;52.88;96897.50;4185344;28;6414;-78
2023/04/04 05:28:22;;;;;;;;;;;;;;;4.05;52.72;96935.84;4182796;28;5886;-78
2023/04/04 05:30:25;;;;;;;;;;;;;;;4.12;52.54;96924.81;4191699;28;5937;-78
2023/04/04 05:32:28;;;;;;;;;;;;;;;4.18;52.18;96911.13;4195133;28;5722;-79
2023/04/04 05:34:31;;;;;;;;;;;;;;;4.26;52.11;96924.28;4191190;28;5885;-79
2023/04/04 05:36:35;;;;;;;;;;;;;;;4.30;51.84;96916.00;4192469;28;5845;-78
2023/04/04 05:38:39;;;;;;;;;;;;;;;4.29;51.72;96916.13;4192628;28;5723;-77
2023/04/04 05:40:42;;;;;;;;;;;;;;;4.34;51.63;96922.56;4198736;28;5778;-78
2023/04/04 05:42:44;;;;;;;;;;;;;;;4.38;51.65;96928.31;4190029;28;5790;-77
2023/04/04 05:44:47;;;;;;;;;;;;;;;4.45;51.46;96923.31;4194379;28;5718;-77
2023/04/04 05:46:50;;;;;;;;;;;;;;;4.47;51.41;96913.50;4194404;28;5711;-78
2023/04/04 05:48:53;;;;;;;;;;;;;;;4.41;51.37;96932.41;4192731;28;5831;-77
2023/04/04 05:50:55;;;;;;;;;;;;;;;4.37;51.26;96922.25;4194375;28;5878;-77
2023/04/04 05:53:00;;;;;;;;;;;;;;;4.39;51.29;96937.81;4195609;28;5858;-78
2023/04/04 05:55:03;;;;;;;;;;;;;;;4.35;51.30;96920.75;4193266;28;5960;-73
2023/04/04 05:57:07;;;;;;;;;;;;;;;4.39;51.31;96922.09;4195152;28;7639;-73
2023/04/04 05:59:10;;;;;;;;;;;;;;;4.41;51.21;96935.84;4196562;28;5711;-73
2023/04/04 06:01:12;;;;;;;;;;;;;;;4.37;51.09;96916.19;4191534;28;5839;-73
2023/04/04 06:03:16;;;;;;;;;;;;;;;4.35;51.17;96926.00;4182522;28;6414;-73
2023/04/04 06:05:23;;;;;;;;;;;;;;;4.39;50.92;96927.34;4187455;28;5819;-73
2023/04/04 06:07:25;;;;;;;;;;;;;;;4.41;51.10;96921.94;4190316;28;5873;-73
2023/04/04 06:09:30;;;;;;;;;;;;;;;4.42;51.03;96924.44;4193138;28;5731;-74
2023/04/04 06:11:33;;;;;;;;;;;;;;;4.37;51.22;96931.91;4194265;28;5718;-73
2023/04/04 06:13:36;;;;;;;;;;;;;;;4.45;50.95;96939.00;4194209;28;5393;-73
2023/04/04 06:15:39;;;;;;;;;;;;;;;4.42;50.76;96934.91;4195108;28;7412;-74
2023/04/04 06:17:43;;;;;;;;;;;;;;;4.41;50.76;96933.22;4196277;28;5122;-74
2023/04/04 06:19:46;;;;;;;;;;;;;;;4.47;50.78;96932.63;4206149;28;5718;-74
2023/04/04 06:21:49;;;;;;;;;;;;;;;4.47;50.66;96937.88;4202124;28;5630;-72
2023/04/04 06:23:54;;;;;;;;;;;;;;;4.43;50.68;96935.72;4200978;28;6405;-74
2023/04/04 06:26:01;;;;;;;;;;;;;;;4.38;50.81;96928.31;4200431;28;5650;-73
2023/04/04 06:28:04;;;;;;;;;;;;;;;4.47;50.87;96924.78;4199242;28;5789;-73
2023/04/04 06:30:09;;;;;;;;;;;;;;;4.56;50.58;96926.50;4186913;28;5767;-74
2023/04/04 06:32:14;;;;;;;;;;;;;;;4.64;50.48;96913.47;4186125;28;5645;-74
2023/04/04 06:34:17;;;;;;;;;;;;;;;4.72;50.31;96919.72;4200079;28;5630;-74
2023/04/04 06:36:20;;;;;;;;;;;;;;;4.67;50.32;96928.88;4197256;28;5794;-74
2023/04/04 06:38:23;;;;;;;;;;;;;;;4.60;50.30;96917.34;4201575;28;5737;-73
2023/04/04 06:40:26;;;;;;;;;;;;;;;4.59;50.35;96923.56;4202118;28;5648;-74
2023/04/04 06:42:31;;;;;;;;;;;;;;;4.61;50.29;96918.19;4200291;28;5648;-73
2023/04/04 06:44:34;;;;;;;;;;;;;;;4.59;50.45;96915.72;4202204;28;5643;-74
2023/04/04 06:46:38;;;;;;;;;;;;;;;4.57;50.28;96950.88;4202104;28;6486;-73
2023/04/04 06:48:41;;;;;;;;;;;;;;;4.52;50.47;96926.94;4201837;28;5843;-74
2023/04/04 06:50:44;;;;;;;;;;;;;;;4.55;50.33;96922.25;4201948;28;5830;-75
2023/04/04 06:52:47;;;;;;;;;;;;;;;4.65;50.26;96917.72;4201898;28;5643;-74
2023/04/04 06:54:50;;;;;;;;;;;;;;;4.74;50.28;96938.72;4201700;28;5639;-73
2023/04/04 06:56:54;;;;;;;;;;;;;;;4.77;50.27;96939.25;4201187;28;5722;-74
2023/04/04 06:58:58;;;;;;;;;;;;;;;4.89;50.00;96932.78;4201386;28;5642;-73
2023/04/04 07:01:01;;;;;;;;;;;;;;;4.91;49.88;96940.50;4199264;28;5644;-74
2023/04/04 07:03:07;;;;;;;;;;;;;;;5.00;50.04;96934.31;4196131;28;5779;-74
2023/04/04 07:05:13;;;;;;;;;;;;;;;5.13;49.87;96945.22;4201762;28;5627;-74
2023/04/04 07:07:16;;;;;;;;;;;;;;;5.21;49.92;96932.16;4183649;28;5675;-73
2023/04/04 07:09:19;;;;;;;;;;;;;;;5.28;49.59;96929.72;4201335;28;5571;-73
2023/04/04 07:11:31;;;;;;;;;;;;;;;5.32;49.66;96932.84;4200096;28;5716;-73
2023/04/04 07:13:35;;;;;;;;;;;;;;;5.28;49.44;96942.81;4201398;28;5717;-73
2023/04/04 07:15:39;;;;;;;;;;;;;;;5.25;49.52;96927.41;4200285;28;5872;-73
2023/04/04 07:17:42;;;;;;;;;;;;;;;5.30;49.54;96940.03;4201168;28;5773;-73
2023/04/04 07:19:46;;;;;;;;;;;;;;;5.32;49.46;96933.66;4183465;28;5727;-73
2023/04/04 07:21:50;;;;;;;;;;;;;;;5.40;49.43;96935.50;4201627;28;5636;-74
2023/04/04 07:23:53;;;;;;;;;;;;;;;5.40;49.31;96932.88;4201484;28;5642;-73
2023/04/04 07:25:56;;;;;;;;;;;;;;;5.48;49.46;96932.91;4201329;28;5853;-73
2023/04/04 07:28:00;;;;;;;;;;;;;;;5.54;49.33;96940.97;4201040;28;5846;-73
2023/04/04 07:30:15;;;;;;;;;;;;;;;5.59;49.20;96943.13;4199448;28;5663;-73
2023/04/04 07:32:20;;;;;;;;;;;;;;;5.61;49.09;96935.91;4200260;28;5105;-73
2023/04/04 07:34:28;;;;;;;;;;;;;;;5.65;49.32;96945.09;4201366;28;7791;-73
2023/04/04 07:36:31;;;;;;;;;;;;;;;5.69;49.37;96935.97;4190033;28;6149;-73
2023/04/04 07:38:35;;;;;;;;;;;;;;;5.71;49.21;96941.84;4200868;28;5706;-73
2023/04/04 07:40:39;;;;;;;;;;;;;;;5.76;49.13;96933.50;4201252;28;5654;-73
2023/04/04 07:42:44;;;;;;;;;;;;;;;5.84;49.20;96941.41;4201788;28;5631;-73
2023/04/04 07:44:47;;;;;;;;;;;;;;;5.95;49.04;96942.94;4199894;28;5744;-73
2023/04/04 07:46:50;;;;;;;;;;;;;;;5.97;48.88;96940.97;4200491;28;5751;-74
2023/04/04 07:49:12;;;;;;;;;;;;;;;5.97;48.92;96951.47;4193624;28;5652;-75
2023/04/04 07:51:15;;;;;;;;;;;;;;;5.92;48.54;96945.88;4200699;28;5627;-74
2023/04/04 07:53:18;;;;;;;;;;;;;;;5.86;48.64;96942.06;4201424;28;5679;-74
2023/04/04 07:55:23;;;;;;;;;;;;;;;5.97;48.66;96935.72;4200766;28;5833;-74
2023/04/04 07:57:26;;;;;;;;;;;;;;;5.99;48.51;96931.13;4200676;28;5631;-74
2023/04/04 07:59:30;;;;;;;;;;;;;;;6.04;48.31;96939.34;4200764;28;5722;-74
2023/04/04 08:01:33;;;;;;;;;;;;;;;6.06;48.18;96934.75;4200705;28;5655;-73
2023/04/04 08:03:36;;;;;;;;;;;;;;;6.10;48.25;96934.25;4200963;28;5729;-73
2023/04/04 08:05:41;;;;;;;;;;;;;;;6.15;48.11;96941.69;4201090;28;5742;-73
2023/04/04 08:07:44;;;;;;;;;;;;;;;6.12;47.91;96949.88;4182994;28;5730;-73
2023/04/04 08:09:47;;;;;;;;;;;;;;;6.05;48.03;96948.88;4198696;28;5634;-73
2023/04/04 08:11:50;;;;;;;;;;;;;;;6.04;48.01;96950.66;4200052;28;6320;-73
2023/04/04 08:13:53;;;;;;;;;;;;;;;6.10;48.03;96946.56;4199400;28;5831;-74
2023/04/04 08:15:56;;;;;;;;;;;;;;;6.11;48.01;96956.09;4200778;28;6438;-74
2023/04/04 08:18:00;;;;;;;;;;;;;;;6.07;47.81;96945.09;4200143;28;5804;-74
2023/04/04 08:20:03;;;;;;;;;;;;;;;6.06;47.86;96947.88;4200219;28;5642;-74
2023/04/04 08:22:08;;;;;;;;;;;;;;;6.11;47.80;96956.09;4182905;28;5099;-74
2023/04/04 08:24:12;;;;;;;;;;;;;;;6.15;47.50;96967.09;4200557;28;5714;-73
2023/04/04 08:26:15;;;;;;;;;;;;;;;6.14;47.63;96961.03;4200660;28;5782;-73
2023/04/04 08:28:18;;;;;;;;;;;;;;;6.14;47.47;96955.78;4200319;28;5803;-73
2023/04/04 08:30:21;;;;;;;;;;;;;;;6.19;47.36;96960.53;4200205;28;5846;-74
2023/04/04 08:32:26;;;;;;;;;;;;;;;6.24;47.47;96963.53;4182592;28;5727;-74
2023/04/04 08:34:29;;;;;;;;;;;;;;;6.26;47.66;96964.16;4200143;28;5769;-73
2023/04/04 08:36:32;;;;;;;;;;;;;;;6.35;47.56;96963.19;4182943;28;5719;-74
2023/04/04 08:38:36;;;;;;;;;;;;;;;6.50;47.29;96958.94;4200225;28;5721;-73
2023/04/04 08:40:40;;;;;;;;;;;;;;;6.60;47.15;96966.66;4200081;28;6205;-74
2023/04/04 08:42:45;;;;;;;;;;;;;;;6.67;47.02;96972.88;4200326;28;5647;-74
2023/04/04 08:44:52;;;;;;;;;;;;;;;6.66;47.09;96966.00;4200576;28;5643;-74
2023/04/04 08:46:56;;;;;;;;;;;;;;;6.68;46.91;96958.75;4200319;28;5739;-73
2023/04/04 08:49:01;;;;;;;;;;;;;;;6.77;46.85;96985.88;4199971;28;6309;-74
2023/04/04 08:51:04;;;;;;;;;;;;;;;6.65;46.65;96964.34;4200209;28;5627;-73
2023/04/04 08:53:09;;;;;;;;;;;;;;;6.64;46.74;96975.84;4200195;28;5657;-74
2023/04/04 08:55:14;;;;;;;;;;;;;;;6.68;46.77;96975.38;4200203;28;5612;-73
2023/04/04 08:57:17;;;;;;;;;;;;;;;6.70;46.64;96978.66;4200093;28;5713;-74
2023/04/04 08:59:21;;;;;;;;;;;;;;;6.76;46.84;96971.09;4199736;28;5635;-75
2023/04/04 09:01:24;;;;;;;;;;;;;;;6.80;46.76;96983.75;4200448;28;5628;-74
2023/04/04 09:03:31;;;;;;;;;;;;;;;6.86;46.49;96969.94;4200381;28;5635;-74
2023/04/04 09:05:35;;;;;;;;;;;;;;;6.88;46.46;96981.09;4181858;28;5863;-74
2023/04/04 09:07:39;;;;;;;;;;;;;;;6.84;46.58;96987.69;4183720;28;5761;-75
2023/04/04 09:09:46;;;;;;;;;;;;;;;6.92;46.29;97003.44;4183418;28;5731;-74
2023/04/04 09:11:52;;;;;;;;;;;;;;;6.87;46.44;96995.22;4199123;28;5690;-74
2023/04/04 09:13:56;;;;;;;;;;;;;;;6.98;46.38;96997.50;4199404;28;5722;-73
2023/04/04 09:16:00;;;;;;;;;;;;;;;7.09;46.14;97006.06;4195710;28;5665;-73
2023/04/04 09:18:04;;;;;;;;;;;;;;;7.13;45.84;97000.28;4186932;28;5725;-73
2023/04/04 09:20:39;;;;;;;;;;;;;;;7.18;45.86;96991.91;4199616;28;5702;-73
2023/04/04 09:22:45;;;;;;;;;;;;;;;7.19;46.00;97001.44;4198380;28;5643;-74
2023/04/04 09:24:50;;;;;;;;;;;;;;;7.28;45.97;96995.19;4192251;28;5638;-73
2023/04/04 09:26:56;;;;;;;;;;;;;;;7.36;46.00;96995.19;4199020;28;5818;-74
2023/04/04 09:28:59;;;;;;;;;;;;;;;7.48;46.06;96998.28;4195968;28;5882;-74
2023/04/04 09:31:04;;;;;;;;;;;;;;;7.56;45.44;96991.16;4196389;28;5666;-74
2023/04/04 09:33:10;;;;;;;;;;;;;;;7.62;45.55;96988.84;4196036;28;5868;-74
2023/04/04 09:35:15;;;;;;;;;;;;;;;7.65;45.41;96996.41;4199477;28;6643;-75
2023/04/04 09:37:19;;;;;;;;;;;;;;;7.71;45.52;96987.84;4199581;28;5722;-74
2023/04/04 09:39:23;;;;;;;;;;;;;;;7.78;45.64;96978.25;4199594;28;5816;-74
2023/04/04 09:41:26;;;;;;;;;;;;;;;7.77;45.08;96972.16;4189972;28;5639;-73
2023/04/04 09:43:32;;;;;;;;;;;;;;;7.85;45.32;96972.16;4199327;28;5620;-74
2023/04/04 09:45:41;;;;;;;;;;;;;;;7.89;44.95;96969.97;4200020;28;5648;-74
2023/04/04 09:47:44;;;;;;;;;;;;;;;7.90;45.05;96979.50;4196592;28;5723;-74
2023/04/04 09:49:47;;;;;;;;;;;;;;;7.95;45.24;96969.31;4199804;28;6967;-74
2023/04/04 09:51:53;;;;;;;;;;;;;;;7.99;44.84;96965.31;4198573;28;5623;-74
2023/04/04 09:53:58;;;;;;;;;;;;;;;8.00;44.88;96977.50;4194082;28;5716;-74
2023/04/04 09:56:01;;;;;;;;;;;;;;;8.00;44.75;96966.97;4204180;28;5627;-75
2023/04/04 09:58:13;;;;;;;;;;;;;;;8.04;44.72;96967.44;4202512;28;5797;-75
2023/04/04 10:00:21;;;;;;;;;;;;;;;8.06;44.64;96962.84;4195788;28;5714;-75
2023/04/04 10:02:24;;;;;;;;;;;;;;;8.13;44.38;96961.13;4203142;28;5652;-75
2023/04/04 10:04:31;;;;;;;;;;;;;;;8.16;44.55;96971.34;4196869;28;5635;-75
2023/04/04 10:06:36;;;;;;;;;;;;;;;8.11;44.37;96953.41;4202754;28;5642;-74
2023/04/04 10:08:42;;;;;;;;;;;;;;;8.21;44.33;96962.91;4202554;28;5630;-74
2023/04/04 10:10:48;;;;;;;;;;;;;;;8.30;44.50;96953.97;4201222;28;5634;-74
2023/04/04 10:13:11;;;;;;;;;;;;;;;8.31;44.11;96960.88;4201710;28;5711;-74
2023/04/04 10:15:16;;;;;;;;;;;;;;;8.38;44.31;96956.56;4199416;28;5639;-74
2023/04/04 10:17:22;;;;;;;;;;;;;;;8.49;44.07;96956.16;4201820;28;5643;-74
2023/04/04 10:19:25;;;;;;;;;;;;;;;8.60;44.05;96958.38;4202258;28;5634;-75
2023/04/04 10:21:30;;;;;;;;;;;;;;;8.66;43.71;96957.69;4200641;28;5742;-74
2023/04/04 10:23:34;;;;;;;;;;;;;;;8.66;43.44;96951.59;4190975;28;5750;-74
2023/04/04 10:25:37;;;;;;;;;;;;;;;8.69;43.70;96967.84;4192994;28;5638;-74
2023/04/04 10:27:40;;;;;;;;;;;;;;;8.69;43.54;96961.75;4199767;28;6260;-74
2023/04/04 10:29:43;;;;;;;;;;;;;;;8.72;43.60;96969.31;4201759;28;5656;-74
2023/04/04 10:31:49;;;;;;;;;;;;;;;8.81;43.38;96962.16;4202471;28;5642;-74
2023/04/04 10:34:04;;;;;;;;;;;;;;;8.85;43.33;96972.19;4200472;28;5623;-74
2023/04/04 10:36:09;;;;;;;;;;;;;;;8.88;43.49;96965.75;4201667;28;5702;-74
2023/04/04 10:38:13;;;;;;;;;;;;;;;8.92;43.23;96967.00;4201685;28;5706;-74
2023/04/04 10:40:18;;;;;;;;;;;;;;;8.91;42.71;96955.66;4201975;28;5882;-73
2023/04/04 10:42:22;;;;;;;;;;;;;;;8.97;42.94;96951.50;4201813;28;5713;-73
2023/04/04 10:44:30;;;;;;;;;;;;;;;9.07;43.14;96970.53;4200662;28;5721;-74
2023/04/04 10:46:35;;;;;;;;;;;;;;;9.16;43.10;96958.06;4195708;28;5639;-74
2023/04/04 10:48:40;;;;;;;;;;;;;;;9.13;42.45;96959.25;4201121;28;5726;-74
2023/04/04 10:50:44;;;;;;;;;;;;;;;9.16;42.55;96953.59;4202389;28;5241;-74
2023/04/04 10:52:48;;;;;;;;;;;;;;;9.22;42.57;96962.63;4198511;28;7716;-74
2023/04/04 10:54:54;;;;;;;;;;;;;;;9.22;42.30;96968.72;4195224;28;5888;-73
2023/04/04 10:57:00;;;;;;;;;;;;;;;9.29;42.23;96953.81;4201878;28;5781;-74
2023/04/04 10:59:13;;;;;;;;;;;;;;;9.32;41.98;96950.81;4202193;28;5634;-74
2023/04/04 11:01:19;;;;;;;;;;;;;;;9.28;41.66;96961.88;4201304;28;5663;-74
2023/04/04 11:03:24;;;;;;;;;;;;;;;9.28;41.98;96952.16;4184550;28;5722;-74
2023/04/04 11:05:31;;;;;;;;;;;;;;;9.38;42.12;96961.63;4202110;28;5794;-74
2023/04/04 11:07:39;;;;;;;;;;;;;;;9.45;41.91;96958.09;4201957;28;5085;-74
2023/04/04 11:09:50;;;;;;;;;;;;;;;9.46;41.75;96956.25;4201948;28;5642;-74
2023/04/04 11:12:09;;;;;;;;;;;;;;;9.48;41.07;96962.16;4201384;28;5627;-74
2023/04/04 11:14:12;;;;;;;;;;;;;;;9.45;40.96;96988.94;4201504;28;5710;-75
2023/04/04 11:16:20;;;;;;;;;;;;;;;9.41;40.96;96956.00;4201875;28;5815;-74
2023/04/04 11:18:23;;;;;;;;;;;;;;;9.44;41.33;96953.81;4201713;28;5634;-74
2023/04/04 11:20:38;;;;;;;;;;;;;;;9.50;40.44;96936.41;4184083;28;5703;-74
2023/04/04 11:22:42;;;;;;;;;;;;;;;9.51;40.89;96936.25;4197755;28;5843;-75
2023/04/04 11:24:45;;;;;;;;;;;;;;;9.55;41.19;96941.97;4196405;28;5665;-74
2023/04/04 11:26:49;;;;;;;;;;;;;;;9.58;40.71;96952.16;4201325;28;5638;-75
2023/04/04 11:28:52;;;;;;;;;;;;;;;9.60;40.29;96939.59;4201815;28;5730;-74
2023/04/04 11:31:23;;;;;;;;;;;;;;;9.60;40.33;96947.50;4201878;28;5631;-74
2023/04/04 11:33:27;;;;;;;;;;;;;;;9.62;40.05;96943.69;4182997;28;5706;-74
2023/04/04 11:35:31;;;;;;;;;;;;;;;9.67;39.75;96937.06;4201007;28;5720;-75
2023/04/04 11:37:59;;;;;;;;;;;;;;;9.67;39.63;96929.94;4196398;28;5764;-74
2023/04/04 11:40:11;;;;;;;;;;;;;;;9.66;39.86;96924.88;4193042;28;5780;-74
2023/04/04 11:42:14;;;;;;;;;;;;;;;9.72;39.90;96929.38;4201220;28;5655;-75
2023/04/04 11:44:18;;;;;;;;;;;;;;;9.76;39.34;96934.13;4200533;28;5729;-74
2023/04/04 11:46:21;;;;;;;;;;;;;;;9.80;39.40;96931.94;4201294;28;5636;-75
2023/04/04 11:48:24;;;;;;;;;;;;;;;9.86;39.71;96950.50;4190829;28;5645;-74
2023/04/04 11:50:34;;;;;;;;;;;;;;;9.87;39.25;96925.75;4184556;28;5744;-74
2023/04/04 11:52:41;;;;;;;;;;;;;;;9.91;39.48;96927.00;4189702;28;5815;-74
2023/04/04 11:54:48;;;;;;;;;;;;;;;9.99;39.53;96936.66;4192276;28;5646;-74
2023/04/04 11:56:53;;;;;;;;;;;;;;;10.06;39.16;96926.13;4199250;28;5713;-75
2023/04/04 11:58:57;;;;;;;;;;;;;;;10.10;38.93;96936.16;4200631;28;5619;-74
2023/04/04 12:01:13;;;;;;;;;;;;;;;10.07;38.75;96935.69;4200478;28;5656;-74
2023/04/04 12:03:17;;;;;;;;;;;;;;;10.04;38.63;96917.59;4200768;28;5559;-74
2023/04/04 12:05:21;;;;;;;;;;;;;;;10.05;38.47;96940.34;4201196;28;5739;-74
2023/04/04 12:07:25;;;;;;;;;;;;;;;10.12;38.76;96946.53;4200247;28;5543;-74
2023/04/04 12:09:29;;;;;;;;;;;;;;;10.16;38.64;96932.75;4195948;28;5695;-74
2023/04/04 12:11:36;;;;;;;;;;;;;;;10.17;38.47;96930.94;4199340;28;5837;-74
2023/04/04 12:13:43;;;;;;;;;;;;;;;10.17;37.74;96942.31;4184161;28;5634;-74
2023/04/04 12:15:48;;;;;;;;;;;;;;;10.18;37.85;96943.13;4184373;28;5669;-74
2023/04/04 12:17:51;;;;;;;;;;;;;;;10.22;38.28;96955.00;4192456;28;5638;-74
2023/04/04 12:19:54;;;;;;;;;;;;;;;10.26;38.24;96945.69;4199481;28;5619;-74
2023/04/04 12:21:58;;;;;;;;;;;;;;;10.29;38.33;96932.09;4199422;28;5745;-74
2023/04/04 12:24:01;;;;;;;;;;;;;;;10.35;38.43;96943.75;4200831;28;5737;-74
2023/04/04 12:26:05;;;;;;;;;;;;;;;10.41;38.12;96962.31;4199968;28;6511;-74
2023/04/04 12:28:10;;;;;;;;;;;;;;;10.41;37.41;96950.91;4200474;28;5636;-74
2023/04/04 12:30:15;;;;;;;;;;;;;;;10.37;37.74;96947.03;4200669;28;5647;-74
2023/04/04 12:32:18;;;;;;;;;;;;;;;10.40;37.89;96939.53;4199605;28;5631;-74
2023/04/04 12:34:23;;;;;;;;;;;;;;;10.47;37.37;96932.50;4193744;28;5741;-74
2023/04/04 12:36:28;;;;;;;;;;;;;;;10.52;37.32;96949.59;4190770;28;5646;-74
2023/04/04 12:38:32;;;;;;;;;;;;;;;10.50;37.32;96940.03;4192338;28;5647;-74
2023/04/04 12:40:37;;;;;;;;;;;;;;;10.49;37.61;96950.81;4199994;28;5795;-75
2023/04/04 12:42:40;;;;;;;;;;;;;;;10.48;37.30;96944.72;4200441;28;5616;-74
2023/04/04 12:44:44;;;;;;;;;;;;;;;10.49;37.40;96943.69;4199841;28;6561;-74
2023/04/04 12:46:48;;;;;;;;;;;;;;;10.56;37.62;96938.47;4200343;28;5639;-75
2023/04/04 12:48:52;;;;;;;;;;;;;;;10.58;37.33;96931.19;4190496;28;6319;-74
2023/04/04 12:50:57;;;;;;;;;;;;;;;10.65;37.49;96939.19;4183399;28;5761;-75
2023/04/04 12:53:00;;;;;;;;;;;;;;;10.67;37.26;96939.81;4183650;28;5720;-74
2023/04/04 12:55:24;;;;;;;;;;;;;;;10.69;37.28;96928.03;4183945;28;5672;-74
2023/04/04 12:57:28;;;;;;;;;;;;;;;10.74;37.18;96943.31;4190571;28;5645;-75
2023/04/04 12:59:33;;;;;;;;;;;;;;;10.77;37.07;96940.31;4187359;28;6560;-74
2023/04/04 13:01:38;;;;;;;;;;;;;;;10.75;36.21;96923.78;4199871;28;5658;-75
2023/04/04 13:03:41;;;;;;;;;;;;;;;10.71;36.48;96933.13;4200341;28;5663;-74
2023/04/04 13:05:47;;;;;;;;;;;;;;;10.70;36.17;96937.59;4199653;28;5639;-74
2023/04/04 13:07:50;;;;;;;;;;;;;;;10.75;36.35;96939.66;4198995;28;5687;-75
2023/04/04 13:09:58;;;;;;;;;;;;;;;10.79;36.10;96943.56;4199492;28;5659;-74
2023/04/04 13:12:02;;;;;;;;;;;;;;;10.82;36.54;96919.38;4191794;28;5776;-75
2023/04/04 13:14:06;;;;;;;;;;;;;;;10.88;36.45;96939.78;4191162;28;5627;-74
2023/04/04 13:16:10;;;;;;;;;;;;;;;10.94;36.50;96931.06;4198378;28;5741;-74
2023/04/04 13:18:16;;;;;;;;;;;;;;;10.97;36.36;96935.97;4198360;28;5626;-74
2023/04/04 13:20:20;;;;;;;;;;;;;;;11.00;36.14;96943.53;4199777;28;5714;-74
2023/04/04 13:22:34;;;;;;;;;;;;;;;10.97;35.94;96938.59;4200480;28;5630;-75
2023/04/04 13:24:37;;;;;;;;;;;;;;;11.02;36.23;96951.28;4195251;28;5778;-74
2023/04/04 13:26:42;;;;;;;;;;;;;;;11.01;35.89;96934.59;4198657;28;5745;-74
2023/04/04 13:28:45;;;;;;;;;;;;;;;11.04;36.14;96922.81;4199466;28;5619;-74
2023/04/04 13:30:48;;;;;;;;;;;;;;;11.04;35.58;96928.09;4200983;28;5635;-74
2023/04/04 13:32:52;;;;;;;;;;;;;;;11.06;35.66;96934.81;4203426;28;5874;-74
2023/04/04 13:34:56;;;;;;;;;;;;;;;11.12;36.07;96921.84;4201925;28;5614;-75
2023/04/04 13:36:59;;;;;;;;;;;;;;;11.16;35.83;96946.91;4202000;28;5730;-75
2023/04/04 13:39:02;;;;;;;;;;;;;;;11.17;35.95;96943.25;4202472;28;5631;-74
2023/04/04 13:41:05;;;;;;;;;;;;;;;11.17;35.34;96928.19;4186283;28;5721;-74
2023/04/04 13:43:10;;;;;;;;;;;;;;;11.15;34.91;96935.50;4195980;28;5635;-74
2023/04/04 13:45:14;;;;;;;;;;;;;;;11.11;35.09;96933.44;4201899;28;5093;-74
2023/04/04 13:47:17;;;;;;;;;;;;;;;11.11;35.06;96933.44;4202884;28;7675;-74
2023/04/04 13:49:20;;;;;;;;;;;;;;;11.10;35.09;96916.75;4200467;28;5745;-74
2023/04/04 13:51:27;;;;;;;;;;;;;;;11.15;35.16;96926.75;4203379;28;5695;-74
2023/04/04 13:53:30;;;;;;;;;;;;;;;11.19;35.28;96930.63;4202915;28;5620;-75
2023/04/04 13:55:33;;;;;;;;;;;;;;;11.19;34.65;96920.84;4198987;28;5627;-74
2023/04/04 13:57:36;;;;;;;;;;;;;;;11.21;35.05;96924.16;4198862;28;5654;-74
2023/04/04 13:59:39;;;;;;;;;;;;;;;11.24;35.21;96939.63;4199495;28;5911;-74
2023/04/04 14:01:42;;;;;;;;;;;;;;;11.25;35.27;96916.63;4186630;28;5807;-74
2023/04/04 14:03:47;;;;;;;;;;;;;;;11.26;34.79;96931.50;4186636;28;5638;-74
2023/04/04 14:05:50;;;;;;;;;;;;;;;11.24;34.82;96921.13;4190544;28;5690;-74
2023/04/04 14:07:56;;;;;;;;;;;;;;;11.26;34.86;96926.22;4197114;28;5634;-74
2023/04/04 14:10:00;;;;;;;;;;;;;;;11.26;35.02;96920.91;4190765;28;5535;-74
2023/04/04 14:12:03;;;;;;;;;;;;;;;11.29;35.02;96915.22;4200826;28;5639;-75
2023/04/04 14:14:06;;;;;;;;;;;;;;;11.33;34.79;96921.78;4200258;28;5626;-74
2023/04/04 14:16:10;;;;;;;;;;;;;;;11.35;34.69;96917.09;4200648;28;5790;-74
2023/04/04 14:18:15;;;;;;;;;;;;;;;11.37;34.62;96904.50;4201529;28;5730;-75
2023/04/04 14:20:19;;;;;;;;;;;;;;;11.40;34.55;96904.09;4201776;28;5889;-76
2023/04/04 14:22:22;;;;;;;;;;;;;;;11.43;34.67;96906.34;4200186;28;5627;-74
2023/04/04 14:24:26;;;;;;;;;;;;;;;11.43;34.39;96910.81;4202468;28;5539;-75
2023/04/04 14:26:29;;;;;;;;;;;;;;;11.42;34.21;96910.00;4196524;28;6219;-74
2023/04/04 14:28:33;;;;;;;;;;;;;;;11.42;33.86;96940.94;4192025;28;5649;-74
2023/04/04 14:30:36;;;;;;;;;;;;;;;11.36;33.82;96900.22;4188326;28;5651;-74
2023/04/04 14:32:39;;;;;;;;;;;;;;;11.35;33.78;96920.56;4193937;28;5635;-74
2023/04/04 14:34:42;;;;;;;;;;;;;;;11.34;33.99;96900.41;4196198;28;5283;-74
2023/04/04 14:36:45;;;;;;;;;;;;;;;11.38;34.07;96912.22;4200707;28;5775;-74
2023/04/04 14:38:50;;;;;;;;;;;;;;;11.40;33.79;96901.44;4199334;28;5678;-74
2023/04/04 14:40:55;;;;;;;;;;;;;;;11.42;33.95;96903.91;4199135;28;5615;-74
2023/04/04 14:42:57;;;;;;;;;;;;;;;11.42;34.03;96910.00;4197438;28;5820;-74
2023/04/04 14:45:06;;;;;;;;;;;;;;;11.41;33.78;96900.44;4193658;28;5969;-74
2023/04/04 14:47:09;;;;;;;;;;;;;;;11.36;33.54;96900.22;4191882;28;5747;-74
2023/04/04 14:49:12;;;;;;;;;;;;;;;11.35;33.73;96909.16;4194492;28;5793;-75
2023/04/04 14:51:18;;;;;;;;;;;;;;;11.33;34.04;96912.00;4198665;28;5631;-75
2023/04/04 14:53:21;;;;;;;;;;;;;;;11.36;33.68;96905.50;4180504;28;5861;-74
2023/04/04 14:55:24;;;;;;;;;;;;;;;11.40;33.71;96901.44;4199054;28;6077;-74
2023/04/04 14:57:28;;;;;;;;;;;;;;;11.46;33.89;96899.88;4182525;28;5829;-74
2023/04/04 14:59:37;;;;;;;;;;;;;;;11.46;33.61;96894.56;4194322;28;5619;-74
2023/04/04 15:01:40;;;;;;;;;;;;;;;11.47;33.65;96902.31;4195149;28;5723;-74
2023/04/04 15:03:43;;;;;;;;;;;;;;;11.50;33.71;96915.16;4193272;28;5623;-74
2023/04/04 15:05:47;;;;;;;;;;;;;;;11.48;33.82;96890.72;4199178;28;5714;-74
2023/04/04 15:07:50;;;;;;;;;;;;;;;11.47;33.73;96907.59;4196315;28;5861;-75
2023/04/04 15:09:53;;;;;;;;;;;;;;;11.43;33.65;96905.53;4198663;28;6428;-75
2023/04/04 15:11:56;;;;;;;;;;;;;;;11.43;33.58;96910.81;4199312;28;6463;-75
2023/04/04 15:14:00;;;;;;;;;;;;;;;11.46;33.53;96905.16;4199434;28;5719;-75
2023/04/04 15:16:04;;;;;;;;;;;;;;;11.45;33.88;96904.34;4192884;28;5699;-69
2023/04/04 15:18:07;;;;;;;;;;;;;;;11.48;33.63;96903.94;4185490;28;5744;-68
2023/04/04 15:20:11;;;;;;;;;;;;;;;11.50;33.62;96901.91;4192767;28;5726;-68
2023/04/04 15:22:14;;;;;;;;;;;;;;;11.53;33.43;96908.63;4194453;28;5714;-67
2023/04/04 15:24:17;;;;;;;;;;;;;;;11.49;33.01;96902.09;4198545;28;5634;-68
2023/04/04 15:26:21;;;;;;;;;;;;;;;11.50;33.59;96901.09;4197513;28;5739;-65
2023/04/04 15:28:24;;;;;;;;;;;;;;;11.53;33.71;96909.44;4197829;28;5786;-66
2023/04/04 15:30:29;;;;;;;;;;;;;;;11.57;33.51;96901.94;4193071;28;5726;-67
2023/04/04 15:32:32;;;;;;;;;;;;;;;11.52;33.25;96899.88;4191360;28;5539;-70
2023/04/04 15:34:35;;;;;;;;;;;;;;;11.53;33.54;96901.50;4193835;28;5634;-70
2023/04/04 15:36:38;;;;;;;;;;;;;;;11.54;33.49;96905.78;4198853;28;5798;-70
2023/04/04 15:38:41;;;;;;;;;;;;;;;11.55;33.71;96927.78;4198864;28;5687;-70
2023/04/04 15:40:44;;;;;;;;;;;;;;;11.50;33.26;96901.91;4196948;28;5635;-70
2023/04/04 15:42:48;;;;;;;;;;;;;;;11.48;33.60;96901.28;4200907;28;5722;-70
2023/04/04 15:44:50;;;;;;;;;;;;;;;11.52;33.16;96904.34;4195453;28;6808;-70
2023/04/04 15:46:55;;;;;;;;;;;;;;;11.53;33.52;96901.50;4199004;28;6095;-71
2023/04/04 15:48:58;;;;;;;;;;;;;;;11.54;33.43;96905.78;4192539;28;5646;-69
2023/04/04 15:51:02;;;;;;;;;;;;;;;11.54;33.06;96908.44;4197902;28;5610;-70
2023/04/04 15:53:07;;;;;;;;;;;;;;;11.53;33.34;96919.22;4197644;28;5655;-69
2023/04/04 15:55:12;;;;;;;;;;;;;;;11.53;33.21;96917.41;4196138;28;5748;-70
2023/04/04 15:57:14;;;;;;;;;;;;;;;11.52;33.27;96909.66;4195479;28;5582;-70
2023/04/04 15:59:17;;;;;;;;;;;;;;;11.53;33.44;96913.94;4199314;28;5616;-75
2023/04/04 16:01:20;;;;;;;;;;;;;;;11.51;33.28;96902.72;4198573;28;5769;-74
2023/04/04 16:03:25;;;;;;;;;;;;;;;11.54;33.07;96902.31;4194204;28;5706;-72
2023/04/04 16:05:31;;;;;;;;;;;;;;;11.58;33.13;96909.69;4195726;28;5622;-71
2023/04/04 16:07:34;;;;;;;;;;;;;;;11.54;33.27;96913.72;4198716;28;5725;-72
2023/04/04 16:09:37;;;;;;;;;;;;;;;11.48;32.60;96908.41;4195169;28;5716;-71
2023/04/04 16:11:41;;;;;;;;;;;;;;;11.39;33.13;96921.00;4196497;28;5730;-71
2023/04/04 16:13:44;;;;;;;;;;;;;;;11.34;33.29;96918.13;4198547;28;5639;-70
2023/04/04 16:15:47;;;;;;;;;;;;;;;11.33;33.20;96908.56;4197828;28;6333;-70
2023/04/04 16:17:51;;;;;;;;;;;;;;;11.33;32.99;96912.00;4198770;28;5655;-70
2023/04/04 16:19:55;;;;;;;;;;;;;;;11.36;33.07;96931.97;4195271;28;5673;-71
2023/04/04 16:21:58;;;;;;;;;;;;;;;11.35;32.77;96920.56;4198163;28;5627;-70